Time;durP1;ratioP1;P1;durP2;ratioP2;P2;SDS_P1;SDS_P2;PMS_P1;PMS_P2;Temp;Humidity;BMP_temperature;BMP_pressure;BME280_temperature;BME280_humidity;BME280_pressure;Samples;Min_cycle;Max_cycle;Signal;HPM_P1;HPM_P2
2022/06/30 00:00:06;;;;;;;;;;;26.90;99.90;;;;;;5095172;28;19949;-75
2022/06/30 00:02:37;;;;;;;;;;;26.80;99.90;;;;;;5112173;28;19931;-75
2022/06/30 00:05:04;;;;;;;;;;;26.90;99.90;;;;;;5109683;28;19920;-75
2022/06/30 00:07:31;;;;;;;;;;;26.80;99.90;;;;;;5111959;28;19924;-75
2022/06/30 00:09:59;;;;;;;;;;;26.80;99.90;;;;;;5113364;28;20453;-75
2022/06/30 00:12:26;;;;;;;;;;;26.70;99.90;;;;;;5111979;28;20022;-74
2022/06/30 00:14:54;;;;;;;;;;;26.70;99.90;;;;;;5094871;28;19919;-75
2022/06/30 00:17:21;;;;;;;;;;;26.60;99.90;;;;;;5111606;28;19923;-75
2022/06/30 00:19:49;;;;;;;;;;;26.50;99.90;;;;;;5094880;28;19927;-74
2022/06/30 00:22:16;;;;;;;;;;;26.60;99.90;;;;;;5094701;28;20278;-75
2022/06/30 00:24:45;;;;;;;;;;;26.70;99.90;;;;;;5094156;28;19943;-75
2022/06/30 00:27:13;;;;;;;;;;;26.60;99.90;;;;;;5094830;28;20033;-75
2022/06/30 00:29:40;;;;;;;;;;;26.60;99.90;;;;;;5094688;28;20018;-74
2022/06/30 00:32:08;;;;;;;;;;;26.60;99.90;;;;;;5094319;28;19920;-75
2022/06/30 00:34:35;;;;;;;;;;;26.70;99.90;;;;;;5111520;28;19924;-75
2022/06/30 00:37:03;;;;;;;;;;;26.70;99.90;;;;;;5094259;28;20031;-75
2022/06/30 00:39:30;;;;;;;;;;;26.70;99.90;;;;;;5112449;28;19923;-75
2022/06/30 00:41:58;;;;;;;;;;;26.80;99.90;;;;;;5094594;28;19919;-75
2022/06/30 00:44:25;;;;;;;;;;;26.80;99.90;;;;;;5111193;28;20022;-75
2022/06/30 00:46:53;;;;;;;;;;;26.80;99.90;;;;;;5112177;28;19928;-74
2022/06/30 00:49:21;;;;;;;;;;;26.80;99.90;;;;;;5111263;28;19924;-75
2022/06/30 00:51:48;;;;;;;;;;;26.70;99.90;;;;;;5110957;28;20331;-75
2022/06/30 00:54:16;;;;;;;;;;;26.80;99.90;;;;;;5111141;28;19924;-75
2022/06/30 00:56:45;;;;;;;;;;;26.90;99.90;;;;;;5077201;28;20361;-75
2022/06/30 00:59:14;;;;;;;;;;;26.90;99.90;;;;;;5110723;28;19924;-75
2022/06/30 01:01:42;;;;;;;;;;;27.00;99.90;;;;;;5090108;28;19924;-75
2022/06/30 01:04:10;;;;;;;;;;;27.00;99.90;;;;;;5089456;28;19923;-75
2022/06/30 01:06:37;;;;;;;;;;;27.00;99.90;;;;;;5089897;28;19924;-75
2022/06/30 01:09:05;;;;;;;;;;;27.00;99.90;;;;;;5056752;28;19928;-75
2022/06/30 01:14:18;;;;;;;;;;;27.00;99.90;;;;;;5089952;28;19928;-75
2022/06/30 01:16:46;;;;;;;;;;;27.00;99.90;;;;;;5089896;28;19931;-75
2022/06/30 01:19:16;;;;;;;;;;;27.00;99.90;;;;;;5072819;28;19989;-75
2022/06/30 01:22:02;;;;;;;;;;;27.00;99.90;;;;;;5107273;28;20235;-75
2022/06/30 01:24:30;;;;;;;;;;;26.90;99.90;;;;;;5082503;28;20297;-75
2022/06/30 01:26:57;;;;;;;;;;;26.90;99.90;;;;;;5106821;28;19924;-75
2022/06/30 01:29:25;;;;;;;;;;;26.80;99.90;;;;;;5089696;28;19920;-75
2022/06/30 01:31:52;;;;;;;;;;;26.80;99.90;;;;;;5073411;28;20045;-75
2022/06/30 01:34:19;;;;;;;;;;;26.80;99.90;;;;;;5073487;28;19927;-75
2022/06/30 01:36:47;;;;;;;;;;;26.80;99.90;;;;;;5090115;28;19931;-75
2022/06/30 01:39:14;;;;;;;;;;;26.80;99.90;;;;;;5090421;28;20374;-75
2022/06/30 01:41:41;;;;;;;;;;;26.80;99.90;;;;;;5106424;28;19924;-75
2022/06/30 01:44:11;;;;;;;;;;;26.90;99.90;;;;;;5073219;28;20026;-75
2022/06/30 01:46:47;;;;;;;;;;;26.80;99.90;;;;;;5090838;28;19920;-75
2022/06/30 01:49:15;;;;;;;;;;;26.90;99.90;;;;;;5091362;28;20034;-75
2022/06/30 01:51:42;;;;;;;;;;;26.80;99.90;;;;;;5109907;28;19928;-75
2022/06/30 01:54:10;;;;;;;;;;;26.90;99.90;;;;;;5110106;28;19954;-75
2022/06/30 01:56:39;;;;;;;;;;;26.90;99.90;;;;;;5109546;28;19924;-75
2022/06/30 01:59:07;;;;;;;;;;;27.00;99.90;;;;;;5092735;28;20369;-75
2022/06/30 02:01:35;;;;;;;;;;;27.10;99.90;;;;;;5093010;28;20408;-75
2022/06/30 02:06:49;;;;;;;;;;;27.00;99.90;;;;;;5110033;28;20086;-75
2022/06/30 02:09:16;;;;;;;;;;;27.00;99.90;;;;;;5092958;28;20324;-75
2022/06/30 02:11:44;;;;;;;;;;;26.90;99.90;;;;;;5110099;28;19930;-75
2022/06/30 02:14:11;;;;;;;;;;;26.90;99.90;;;;;;5093134;28;19970;-75
2022/06/30 02:16:38;;;;;;;;;;;27.00;99.90;;;;;;5109772;28;20362;-75
2022/06/30 02:19:06;;;;;;;;;;;27.00;99.90;;;;;;5110501;28;20022;-75
2022/06/30 02:21:33;;;;;;;;;;;27.00;99.90;;;;;;5110844;28;19966;-75
2022/06/30 02:24:00;;;;;;;;;;;27.10;99.90;;;;;;5110939;28;19982;-75
2022/06/30 02:26:28;;;;;;;;;;;27.10;99.90;;;;;;5093063;28;20351;-75
2022/06/30 02:28:56;;;;;;;;;;;27.10;99.90;;;;;;5111011;28;19919;-75
2022/06/30 02:31:23;;;;;;;;;;;27.10;99.90;;;;;;5092804;28;20042;-75
2022/06/30 02:33:50;;;;;;;;;;;27.10;99.90;;;;;;5092899;28;19919;-75
2022/06/30 02:36:18;;;;;;;;;;;27.00;99.90;;;;;;5110901;28;19926;-75
2022/06/30 02:38:45;;;;;;;;;;;26.90;99.90;;;;;;5092073;28;19919;-75
2022/06/30 02:41:12;;;;;;;;;;;26.80;99.90;;;;;;5108640;28;19923;-74
2022/06/30 02:43:40;;;;;;;;;;;26.80;99.90;;;;;;5109584;28;20011;-75
2022/06/30 02:46:07;;;;;;;;;;;26.80;99.90;;;;;;5092761;28;19924;-75
2022/06/30 02:48:34;;;;;;;;;;;26.80;99.90;;;;;;5114656;28;19926;-74
2022/06/30 02:51:02;;;;;;;;;;;26.70;99.90;;;;;;5095592;28;19970;-75
2022/06/30 02:53:29;;;;;;;;;;;26.50;99.90;;;;;;5112812;28;20506;-74
2022/06/30 02:55:56;;;;;;;;;;;26.40;99.90;;;;;;5113699;28;19919;-75
2022/06/30 02:58:24;;;;;;;;;;;26.20;99.90;;;;;;5114326;28;20018;-74
2022/06/30 03:00:51;;;;;;;;;;;26.10;99.90;;;;;;5108759;28;19972;-75
2022/06/30 03:03:18;;;;;;;;;;;26.00;99.90;;;;;;5094862;28;20357;-74
2022/06/30 03:05:46;;;;;;;;;;;26.00;99.90;;;;;;5113187;28;20369;-75
2022/06/30 03:08:13;;;;;;;;;;;26.00;99.90;;;;;;5096224;28;20360;-75
2022/06/30 03:10:41;;;;;;;;;;;26.00;99.90;;;;;;5113021;28;19968;-74
2022/06/30 03:13:08;;;;;;;;;;;26.00;99.90;;;;;;5096341;28;19923;-75
2022/06/30 03:15:35;;;;;;;;;;;26.00;99.90;;;;;;5112823;28;20285;-75
2022/06/30 03:18:03;;;;;;;;;;;26.10;99.90;;;;;;5096077;28;20372;-75
2022/06/30 03:20:30;;;;;;;;;;;26.10;99.90;;;;;;5096232;28;19954;-74
2022/06/30 03:22:58;;;;;;;;;;;26.10;99.90;;;;;;5095763;28;19920;-74
2022/06/30 03:25:25;;;;;;;;;;;26.30;99.90;;;;;;5095030;28;20479;-75
2022/06/30 03:27:52;;;;;;;;;;;26.40;99.90;;;;;;5112674;28;19923;-75
2022/06/30 03:30:20;;;;;;;;;;;26.40;99.90;;;;;;5112122;28;19983;-74
2022/06/30 03:32:47;;;;;;;;;;;26.50;99.90;;;;;;5093861;28;20270;-75
2022/06/30 03:35:15;;;;;;;;;;;26.50;99.90;;;;;;5108979;28;20670;-74
2022/06/30 03:37:42;;;;;;;;;;;26.40;99.90;;;;;;5109250;28;19973;-75
2022/06/30 03:40:10;;;;;;;;;;;26.40;99.90;;;;;;5092102;28;20354;-74
2022/06/30 03:42:37;;;;;;;;;;;26.40;99.90;;;;;;5092011;28;19923;-74
2022/06/30 03:45:05;;;;;;;;;;;26.30;99.90;;;;;;5074932;28;19920;-74
2022/06/30 03:47:32;;;;;;;;;;;26.30;99.90;;;;;;5108626;28;20366;-76
2022/06/30 03:49:59;;;;;;;;;;;26.30;99.90;;;;;;5091319;28;19970;-75
2022/06/30 03:52:27;;;;;;;;;;;26.40;99.90;;;;;;5108596;28;20014;-74
2022/06/30 03:54:54;;;;;;;;;;;26.40;99.90;;;;;;5075185;28;19919;-75
2022/06/30 03:57:21;;;;;;;;;;;26.20;99.90;;;;;;5091178;28;20033;-74
2022/06/30 03:59:49;;;;;;;;;;;26.30;99.90;;;;;;5092299;28;20452;-74
2022/06/30 04:02:16;;;;;;;;;;;26.50;99.90;;;;;;5108537;28;19923;-74
2022/06/30 04:04:44;;;;;;;;;;;26.60;99.90;;;;;;5092716;28;19927;-74
2022/06/30 04:07:11;;;;;;;;;;;26.80;99.90;;;;;;5092385;28;19924;-75
2022/06/30 04:09:38;;;;;;;;;;;26.90;99.90;;;;;;5092594;28;19959;-74
2022/06/30 04:12:08;;;;;;;;;;;27.00;99.90;;;;;;5092736;28;19930;-74
2022/06/30 04:14:35;;;;;;;;;;;27.10;99.90;;;;;;5092585;28;19923;-74
2022/06/30 04:17:03;;;;;;;;;;;27.20;99.90;;;;;;5090615;28;19930;-74
2022/06/30 04:19:30;;;;;;;;;;;27.30;99.90;;;;;;5107938;28;20458;-74
2022/06/30 04:21:57;;;;;;;;;;;27.50;99.90;;;;;;5092024;28;19924;-75
2022/06/30 04:24:25;;;;;;;;;;;27.60;99.90;;;;;;5073912;28;19924;-75
2022/06/30 04:26:52;;;;;;;;;;;27.60;99.90;;;;;;5107652;28;20027;-74
2022/06/30 04:29:20;;;;;;;;;;;27.70;99.90;;;;;;5097828;28;19920;-75
2022/06/30 04:34:33;;;;;;;;;;;27.80;99.90;;;;;;5112850;28;20460;-74
2022/06/30 04:37:01;;;;;;;;;;;27.80;99.90;;;;;;5112442;28;19954;-74
2022/06/30 04:39:28;;;;;;;;;;;27.90;99.90;;;;;;5112058;28;19923;-75
2022/06/30 04:41:55;;;;;;;;;;;27.90;99.90;;;;;;5110935;28;19928;-74
2022/06/30 04:44:23;;;;;;;;;;;28.00;99.90;;;;;;5112409;28;20349;-74
2022/06/30 04:46:50;;;;;;;;;;;28.00;99.90;;;;;;5093504;28;19927;-74
2022/06/30 04:49:18;;;;;;;;;;;28.00;99.90;;;;;;5110917;28;19988;-75
2022/06/30 04:51:45;;;;;;;;;;;28.10;99.90;;;;;;5110816;28;20027;-74
2022/06/30 04:54:12;;;;;;;;;;;28.10;99.90;;;;;;5110952;28;20339;-74
2022/06/30 04:56:40;;;;;;;;;;;28.10;99.90;;;;;;5093931;28;19930;-75
2022/06/30 04:59:07;;;;;;;;;;;28.10;99.90;;;;;;5110427;28;19926;-75
2022/06/30 05:01:34;;;;;;;;;;;28.10;99.90;;;;;;5110560;28;19923;-75
2022/06/30 05:04:02;;;;;;;;;;;28.10;99.90;;;;;;5111962;28;19993;-75
2022/06/30 05:06:29;;;;;;;;;;;28.20;99.90;;;;;;5112091;28;19928;-75
2022/06/30 05:08:57;;;;;;;;;;;28.20;99.90;;;;;;5093624;28;19919;-75
2022/06/30 05:11:24;;;;;;;;;;;28.20;99.90;;;;;;5076721;28;19934;-75
2022/06/30 05:13:51;;;;;;;;;;;28.30;99.90;;;;;;5076749;28;19927;-75
2022/06/30 05:16:19;;;;;;;;;;;28.50;99.90;;;;;;5110306;28;19927;-75
2022/06/30 05:18:46;;;;;;;;;;;28.60;99.90;;;;;;5108001;28;19920;-75
2022/06/30 05:21:14;;;;;;;;;;;28.70;99.90;;;;;;5111345;28;19927;-75
2022/06/30 05:26:28;;;;;;;;;;;28.70;99.90;;;;;;5094150;28;19972;-75
2022/06/30 05:26:28;;;;;;;;;;;28.70;99.90;;;;;;5110349;28;19926;-75
2022/06/30 05:28:56;;;;;;;;;;;28.50;99.90;;;;;;5110241;28;19923;-75
2022/06/30 05:31:23;;;;;;;;;;;28.30;99.90;;;;;;5093495;28;19927;-75
2022/06/30 05:33:51;;;;;;;;;;;28.10;99.90;;;;;;5111535;28;19929;-74
2022/06/30 05:36:18;;;;;;;;;;;28.00;99.90;;;;;;5093759;28;20396;-75
2022/06/30 05:38:45;;;;;;;;;;;27.80;99.90;;;;;;5110267;28;19973;-75
2022/06/30 05:41:13;;;;;;;;;;;27.80;99.90;;;;;;5109923;28;20354;-75
2022/06/30 05:43:44;;;;;;;;;;;27.90;99.90;;;;;;5110683;28;20353;-75
2022/06/30 05:46:11;;;;;;;;;;;28.10;99.90;;;;;;5076994;28;20285;-75
2022/06/30 05:48:39;;;;;;;;;;;28.10;99.90;;;;;;5110353;28;19923;-74
2022/06/30 05:51:09;;;;;;;;;;;28.20;99.90;;;;;;5092615;28;19973;-74
2022/06/30 05:53:37;;;;;;;;;;;28.30;99.90;;;;;;5109826;28;19923;-74
2022/06/30 05:56:04;;;;;;;;;;;28.60;99.90;;;;;;5093353;28;20317;-75
2022/06/30 05:58:32;;;;;;;;;;;28.80;99.90;;;;;;5092286;28;19927;-75
2022/06/30 06:00:59;;;;;;;;;;;28.90;99.90;;;;;;5092699;28;20838;-75
2022/06/30 06:03:27;;;;;;;;;;;29.10;99.90;;;;;;5109878;28;20457;-75
2022/06/30 06:05:54;;;;;;;;;;;29.30;99.90;;;;;;5110026;28;19920;-75
2022/06/30 06:08:22;;;;;;;;;;;29.40;99.90;;;;;;5109855;28;20015;-74
2022/06/30 06:10:49;;;;;;;;;;;29.40;99.90;;;;;;5107689;28;19949;-75
2022/06/30 06:13:16;;;;;;;;;;;29.40;99.90;;;;;;5109897;28;19969;-75
2022/06/30 06:15:44;;;;;;;;;;;29.30;99.90;;;;;;5092966;28;19927;-75
2022/06/30 06:18:11;;;;;;;;;;;29.20;99.90;;;;;;5110029;28;19959;-75
2022/06/30 06:20:41;;;;;;;;;;;29.00;99.90;;;;;;5093084;28;19923;-75
2022/06/30 06:23:16;;;;;;;;;;;29.10;99.90;;;;;;5113222;28;19944;-74
2022/06/30 06:25:43;;;;;;;;;;;29.10;99.90;;;;;;5115429;28;19920;-75
2022/06/30 06:30:56;;;;;;;;;;;28.70;99.90;;;;;;5096904;28;19926;-75
2022/06/30 06:33:24;;;;;;;;;;;28.90;99.90;;;;;;5113552;28;19925;-75
2022/06/30 06:35:51;;;;;;;;;;;29.00;99.90;;;;;;5115406;28;20010;-75
2022/06/30 06:38:19;;;;;;;;;;;29.30;99.90;;;;;;5115142;28;19927;-75
2022/06/30 06:40:46;;;;;;;;;;;29.30;99.90;;;;;;5113794;28;19919;-75
2022/06/30 06:43:13;;;;;;;;;;;29.30;99.90;;;;;;5096092;28;19923;-75
2022/06/30 06:45:41;;;;;;;;;;;29.30;99.90;;;;;;5113364;28;19924;-75
2022/06/30 06:48:08;;;;;;;;;;;29.50;99.90;;;;;;5114550;28;19919;-74
2022/06/30 06:50:35;;;;;;;;;;;29.60;99.90;;;;;;5113516;28;19973;-74
2022/06/30 06:53:03;;;;;;;;;;;29.70;99.90;;;;;;5113052;28;19951;-75
2022/06/30 06:55:30;;;;;;;;;;;29.70;98.70;;;;;;5096662;28;19942;-75
2022/06/30 06:57:58;;;;;;;;;;;29.70;98.70;;;;;;5113532;28;19973;-75
2022/06/30 07:00:25;;;;;;;;;;;29.90;98.50;;;;;;5113436;28;19958;-75
2022/06/30 07:02:52;;;;;;;;;;;29.90;98.40;;;;;;5112811;28;20472;-75
2022/06/30 07:05:20;;;;;;;;;;;30.20;97.60;;;;;;5112900;28;19931;-75
2022/06/30 07:07:55;;;;;;;;;;;30.40;97.60;;;;;;5093599;28;19923;-75
2022/06/30 07:10:23;;;;;;;;;;;30.50;97.80;;;;;;5083469;28;19959;-75
2022/06/30 07:12:51;;;;;;;;;;;30.40;97.80;;;;;;5093273;28;19924;-74
2022/06/30 07:15:20;;;;;;;;;;;30.50;97.70;;;;;;5092429;28;19937;-75
2022/06/30 07:17:47;;;;;;;;;;;30.30;98.10;;;;;;5076049;28;19923;-75
2022/06/30 07:20:15;;;;;;;;;;;30.30;98.50;;;;;;5093574;28;19924;-75
2022/06/30 07:22:42;;;;;;;;;;;30.60;98.20;;;;;;5075377;28;20664;-75
2022/06/30 07:25:10;;;;;;;;;;;30.50;98.20;;;;;;5092136;28;19970;-75
2022/06/30 07:27:37;;;;;;;;;;;30.90;98.10;;;;;;5092503;28;20419;-75
2022/06/30 07:30:07;;;;;;;;;;;30.80;97.50;;;;;;5092339;28;20392;-75
2022/06/30 07:32:35;;;;;;;;;;;30.80;97.40;;;;;;5093354;28;19950;-75
2022/06/30 07:35:03;;;;;;;;;;;31.10;97.10;;;;;;5092152;28;20010;-75
2022/06/30 07:37:30;;;;;;;;;;;31.10;96.60;;;;;;5075159;28;20431;-75
2022/06/30 07:39:58;;;;;;;;;;;31.10;96.80;;;;;;5075295;28;19924;-75
2022/06/30 07:42:25;;;;;;;;;;;30.80;96.70;;;;;;5092176;28;20293;-75
2022/06/30 07:44:53;;;;;;;;;;;30.90;97.50;;;;;;5092385;28;19924;-75
2022/06/30 07:47:20;;;;;;;;;;;31.00;97.20;;;;;;5075341;28;19924;-75
2022/06/30 07:49:48;;;;;;;;;;;31.00;96.10;;;;;;5092012;28;19923;-75
2022/06/30 07:52:15;;;;;;;;;;;31.20;95.80;;;;;;5075254;28;19974;-76
2022/06/30 07:54:45;;;;;;;;;;;31.30;95.30;;;;;;5091863;28;20077;-75
2022/06/30 07:57:13;;;;;;;;;;;31.40;95.20;;;;;;5110027;28;20015;-75
2022/06/30 07:59:56;;;;;;;;;;;31.40;95.10;;;;;;5113754;28;20374;-75
2022/06/30 08:02:24;;;;;;;;;;;31.20;95.20;;;;;;5112287;28;19926;-75
2022/06/30 08:04:52;;;;;;;;;;;31.30;95.00;;;;;;5091951;28;20650;-75
2022/06/30 08:07:19;;;;;;;;;;;31.40;95.20;;;;;;5108220;28;19963;-75
2022/06/30 08:09:46;;;;;;;;;;;31.40;95.10;;;;;;5074915;28;20293;-76
2022/06/30 08:12:14;;;;;;;;;;;31.60;95.00;;;;;;5108316;28;19973;-74
2022/06/30 08:14:41;;;;;;;;;;;31.50;95.10;;;;;;5091548;28;20396;-74
2022/06/30 08:17:09;;;;;;;;;;;31.50;94.60;;;;;;5091269;28;19965;-74
2022/06/30 08:19:36;;;;;;;;;;;31.40;95.10;;;;;;5091508;28;20559;-74
2022/06/30 08:22:04;;;;;;;;;;;31.40;95.70;;;;;;5108560;28;19920;-75
2022/06/30 08:24:34;;;;;;;;;;;31.50;96.20;;;;;;5090928;28;20393;-75
2022/06/30 08:27:02;;;;;;;;;;;31.70;96.20;;;;;;5074317;28;19926;-74
2022/06/30 08:29:32;;;;;;;;;;;31.70;95.90;;;;;;5074047;28;20290;-75
2022/06/30 08:32:00;;;;;;;;;;;31.90;95.60;;;;;;5074222;28;19927;-75
2022/06/30 08:34:28;;;;;;;;;;;32.00;95.30;;;;;;5090975;28;19978;-75
2022/06/30 08:36:56;;;;;;;;;;;31.90;94.90;;;;;;5091033;28;20732;-75
2022/06/30 08:42:11;;;;;;;;;;;31.80;95.10;;;;;;5092072;28;19919;-75
2022/06/30 08:44:41;;;;;;;;;;;31.70;95.10;;;;;;5072769;28;19928;-75
2022/06/30 08:47:08;;;;;;;;;;;31.90;94.90;;;;;;5090515;28;19924;-74
2022/06/30 08:49:36;;;;;;;;;;;31.80;94.90;;;;;;5074241;28;20278;-75
2022/06/30 08:52:05;;;;;;;;;;;31.60;95.00;;;;;;5078538;28;19924;-75
2022/06/30 08:54:36;;;;;;;;;;;31.80;95.10;;;;;;5107790;28;19931;-74
2022/06/30 08:57:03;;;;;;;;;;;31.80;95.00;;;;;;5090313;28;19924;-75
2022/06/30 08:59:32;;;;;;;;;;;31.50;95.20;;;;;;5090457;28;19981;-75
2022/06/30 09:02:00;;;;;;;;;;;31.50;95.50;;;;;;5089406;28;19966;-75
2022/06/30 09:04:29;;;;;;;;;;;31.50;95.40;;;;;;5090476;28;20555;-75
2022/06/30 09:06:57;;;;;;;;;;;31.70;95.20;;;;;;5090044;28;20293;-75
2022/06/30 09:09:25;;;;;;;;;;;31.70;95.20;;;;;;5107112;28;19924;-75
2022/06/30 09:11:53;;;;;;;;;;;31.80;94.90;;;;;;5090276;28;19924;-75
2022/06/30 09:14:34;;;;;;;;;;;31.90;95.00;;;;;;5090354;28;19920;-75
2022/06/30 09:17:03;;;;;;;;;;;31.70;94.90;;;;;;5089765;28;19930;-74
2022/06/30 09:19:31;;;;;;;;;;;31.90;94.50;;;;;;5090140;28;19946;-75
2022/06/30 09:22:14;;;;;;;;;;;31.80;94.30;;;;;;5089926;28;19924;-75
2022/06/30 09:24:42;;;;;;;;;;;31.80;94.30;;;;;;5090033;28;19935;-75
2022/06/30 09:27:20;;;;;;;;;;;31.80;94.80;;;;;;5091257;28;19932;-75
2022/06/30 09:29:55;;;;;;;;;;;31.80;94.40;;;;;;5090178;28;19927;-75
2022/06/30 09:32:50;;;;;;;;;;;31.80;93.90;;;;;;5076549;28;19924;-75
2022/06/30 09:35:19;;;;;;;;;;;31.70;93.90;;;;;;5091142;28;19924;-75
2022/06/30 09:37:56;;;;;;;;;;;31.80;94.10;;;;;;5091061;28;20363;-75
2022/06/30 09:40:31;;;;;;;;;;;31.90;93.70;;;;;;5089904;28;19966;-74
2022/06/30 09:42:59;;;;;;;;;;;31.90;93.40;;;;;;5091130;28;19920;-75
2022/06/30 09:45:37;;;;;;;;;;;32.00;93.20;;;;;;5089778;28;19930;-75
2022/06/30 09:48:05;;;;;;;;;;;32.00;93.00;;;;;;5089827;28;19931;-75
2022/06/30 09:50:33;;;;;;;;;;;31.90;92.70;;;;;;5092109;28;19919;-75
2022/06/30 09:53:04;;;;;;;;;;;31.90;91.80;;;;;;5110408;28;19931;-75
2022/06/30 09:55:44;;;;;;;;;;;32.00;92.70;;;;;;5110180;28;19923;-75
2022/06/30 09:58:14;;;;;;;;;;;31.90;92.80;;;;;;5111627;28;20010;-75
2022/06/30 10:00:42;;;;;;;;;;;32.00;92.80;;;;;;5111349;28;19923;-75
2022/06/30 10:03:10;;;;;;;;;;;32.00;92.50;;;;;;5092415;28;19927;-75
2022/06/30 10:05:43;;;;;;;;;;;32.00;92.30;;;;;;5109057;28;20737;-75
2022/06/30 10:08:12;;;;;;;;;;;31.90;92.50;;;;;;5111047;28;19931;-75
2022/06/30 10:10:41;;;;;;;;;;;31.80;92.80;;;;;;5092846;28;19967;-75
2022/06/30 10:13:18;;;;;;;;;;;31.90;92.70;;;;;;5109622;28;20255;-75
2022/06/30 10:15:54;;;;;;;;;;;31.70;92.60;;;;;;5109829;28;19931;-75
2022/06/30 10:18:25;;;;;;;;;;;31.90;92.80;;;;;;5109639;28;19937;-75
2022/06/30 10:20:53;;;;;;;;;;;31.80;92.90;;;;;;5109810;28;19923;-75
2022/06/30 10:23:21;;;;;;;;;;;32.10;92.70;;;;;;5109730;28;19923;-75
2022/06/30 10:25:49;;;;;;;;;;;31.90;92.80;;;;;;5109940;28;19973;-75
2022/06/30 10:28:18;;;;;;;;;;;32.00;92.70;;;;;;5093314;28;20345;-75
2022/06/30 10:31:04;;;;;;;;;;;31.90;92.70;;;;;;5109460;28;19926;-75
2022/06/30 10:33:31;;;;;;;;;;;31.90;92.70;;;;;;5109798;28;19969;-75
2022/06/30 10:36:04;;;;;;;;;;;31.90;92.80;;;;;;5109419;28;19920;-75
2022/06/30 10:38:31;;;;;;;;;;;31.80;93.00;;;;;;5110500;28;19923;-75
2022/06/30 10:40:59;;;;;;;;;;;31.90;93.20;;;;;;5090422;28;19919;-74
2022/06/30 10:43:29;;;;;;;;;;;31.90;93.60;;;;;;5109496;28;19934;-75
2022/06/30 10:46:03;;;;;;;;;;;31.90;93.40;;;;;;5092715;28;19931;-75
2022/06/30 10:48:53;;;;;;;;;;;31.90;93.60;;;;;;5109768;28;20443;-75
2022/06/30 10:51:21;;;;;;;;;;;31.90;93.30;;;;;;5109222;28;19931;-75
2022/06/30 10:53:55;;;;;;;;;;;32.00;93.40;;;;;;5075104;28;19926;-75
2022/06/30 10:56:26;;;;;;;;;;;32.00;93.20;;;;;;5110121;28;20018;-75
2022/06/30 10:59:11;;;;;;;;;;;32.20;93.30;;;;;;5109570;28;19927;-74
2022/06/30 11:01:40;;;;;;;;;;;32.30;93.10;;;;;;5109795;28;20343;-75
2022/06/30 11:04:09;;;;;;;;;;;32.20;93.20;;;;;;5110876;28;19942;-75
2022/06/30 11:06:57;;;;;;;;;;;32.00;93.30;;;;;;5092679;28;19951;-75
2022/06/30 11:09:43;;;;;;;;;;;32.10;93.30;;;;;;5114534;28;19927;-75
2022/06/30 11:12:11;;;;;;;;;;;32.20;93.40;;;;;;5096064;28;19919;-74
2022/06/30 11:14:49;;;;;;;;;;;32.20;93.30;;;;;;5113915;28;20528;-75
2022/06/30 11:17:19;;;;;;;;;;;32.10;93.40;;;;;;5113920;28;19924;-76
2022/06/30 11:19:47;;;;;;;;;;;32.10;93.40;;;;;;5113941;28;19923;-75
2022/06/30 11:22:16;;;;;;;;;;;31.90;93.40;;;;;;5095570;28;19926;-75
2022/06/30 11:24:47;;;;;;;;;;;32.00;93.10;;;;;;5112972;28;19919;-75
2022/06/30 11:27:20;;;;;;;;;;;32.10;93.20;;;;;;5094968;28;19924;-75
2022/06/30 11:29:49;;;;;;;;;;;32.00;93.30;;;;;;5096041;28;19920;-75
2022/06/30 11:32:21;;;;;;;;;;;32.10;93.30;;;;;;5112507;28;19927;-75
2022/06/30 11:35:07;;;;;;;;;;;32.10;92.80;;;;;;5113032;28;20514;-75
2022/06/30 11:37:35;;;;;;;;;;;32.00;92.90;;;;;;5110500;28;19930;-75
2022/06/30 11:40:07;;;;;;;;;;;32.00;93.00;;;;;;5112418;28;19927;-75
2022/06/30 11:42:35;;;;;;;;;;;31.90;93.20;;;;;;5095443;28;20410;-75
2022/06/30 11:45:14;;;;;;;;;;;31.90;93.10;;;;;;5095857;28;19920;-75
2022/06/30 11:47:42;;;;;;;;;;;31.90;93.20;;;;;;5112699;28;19931;-75
2022/06/30 11:50:18;;;;;;;;;;;31.80;93.10;;;;;;5095140;28;19928;-75
2022/06/30 11:52:46;;;;;;;;;;;31.90;93.30;;;;;;5094482;28;19931;-75
2022/06/30 11:55:14;;;;;;;;;;;31.80;93.30;;;;;;5110880;28;19938;-75
2022/06/30 11:57:43;;;;;;;;;;;31.80;93.40;;;;;;5113701;28;19930;-75
2022/06/30 12:00:13;;;;;;;;;;;31.50;93.60;;;;;;5113583;28;19927;-75
2022/06/30 12:02:41;;;;;;;;;;;31.60;93.50;;;;;;5112115;28;19923;-75
2022/06/30 12:05:11;;;;;;;;;;;31.70;93.60;;;;;;5094734;28;19965;-75
2022/06/30 12:07:38;;;;;;;;;;;31.80;93.60;;;;;;5111812;28;19927;-75
2022/06/30 12:10:07;;;;;;;;;;;31.90;93.40;;;;;;5113325;28;19923;-75
2022/06/30 12:12:38;;;;;;;;;;;31.90;93.50;;;;;;5111446;28;19950;-75
2022/06/30 12:15:12;;;;;;;;;;;32.00;93.20;;;;;;5094204;28;19965;-76
2022/06/30 12:18:01;;;;;;;;;;;32.00;93.00;;;;;;5094501;28;19923;-75
2022/06/30 12:20:30;;;;;;;;;;;32.10;93.10;;;;;;5093694;28;19919;-75
2022/06/30 12:22:57;;;;;;;;;;;32.20;92.90;;;;;;5111124;28;20335;-75
2022/06/30 12:25:27;;;;;;;;;;;32.20;92.90;;;;;;5110612;28;19920;-75
2022/06/30 12:27:59;;;;;;;;;;;32.20;93.10;;;;;;5111195;28;19924;-75
2022/06/30 12:30:40;;;;;;;;;;;32.20;93.20;;;;;;5094617;28;19920;-75
2022/06/30 12:33:08;;;;;;;;;;;32.10;93.30;;;;;;5109029;28;20296;-75
2022/06/30 12:35:36;;;;;;;;;;;32.10;93.10;;;;;;5093422;28;19938;-76
2022/06/30 12:38:24;;;;;;;;;;;32.30;93.30;;;;;;5094214;28;19919;-76
2022/06/30 12:40:54;;;;;;;;;;;32.40;92.80;;;;;;5111998;28;19930;-75
2022/06/30 12:43:22;;;;;;;;;;;32.30;93.10;;;;;;5111483;28;20476;-75
2022/06/30 12:45:56;;;;;;;;;;;32.30;93.20;;;;;;5111486;28;19926;-75
2022/06/30 12:48:39;;;;;;;;;;;32.30;93.10;;;;;;5110644;28;19926;-75
2022/06/30 12:51:08;;;;;;;;;;;32.30;93.10;;;;;;5093700;28;19953;-75
2022/06/30 12:53:38;;;;;;;;;;;32.30;92.90;;;;;;5111903;28;19928;-75
2022/06/30 12:56:07;;;;;;;;;;;32.20;92.70;;;;;;5110285;28;20366;-76
2022/06/30 12:58:48;;;;;;;;;;;32.20;92.90;;;;;;5110238;28;19923;-75
2022/06/30 13:01:17;;;;;;;;;;;32.30;92.90;;;;;;5110097;28;20369;-76
2022/06/30 13:03:56;;;;;;;;;;;32.40;92.50;;;;;;5110217;28;19920;-76
2022/06/30 13:06:24;;;;;;;;;;;32.30;92.30;;;;;;5110815;28;19972;-75
2022/06/30 13:08:52;;;;;;;;;;;32.30;92.70;;;;;;5111452;28;19923;-75
2022/06/30 13:11:24;;;;;;;;;;;32.20;92.60;;;;;;5109850;28;19977;-76
2022/06/30 13:13:52;;;;;;;;;;;32.30;92.40;;;;;;5110201;28;19928;-75
2022/06/30 13:16:20;;;;;;;;;;;32.30;92.30;;;;;;5110825;28;20361;-75
2022/06/30 13:18:53;;;;;;;;;;;32.40;92.50;;;;;;5076595;28;19935;-75
2022/06/30 13:21:23;;;;;;;;;;;32.40;92.50;;;;;;5093441;28;19923;-75
2022/06/30 13:23:50;;;;;;;;;;;32.40;92.30;;;;;;5107521;28;19951;-75
2022/06/30 13:26:18;;;;;;;;;;;32.30;92.10;;;;;;5093123;28;19927;-76
2022/06/30 13:28:47;;;;;;;;;;;32.40;92.00;;;;;;5093960;28;19923;-75
2022/06/30 13:31:18;;;;;;;;;;;32.60;91.80;;;;;;5093718;28;19968;-76
2022/06/30 13:33:50;;;;;;;;;;;32.50;91.80;;;;;;5110558;28;20317;-76
2022/06/30 13:36:18;;;;;;;;;;;32.50;91.60;;;;;;5093945;28;20026;-76
2022/06/30 13:38:46;;;;;;;;;;;32.50;91.80;;;;;;5110332;28;19968;-75
2022/06/30 13:41:14;;;;;;;;;;;32.60;91.90;;;;;;5110568;28;19924;-76
2022/06/30 13:43:42;;;;;;;;;;;32.60;91.80;;;;;;5093170;28;19920;-75
2022/06/30 13:46:13;;;;;;;;;;;32.50;91.80;;;;;;5093928;28;20025;-76
2022/06/30 13:48:40;;;;;;;;;;;32.50;91.90;;;;;;5093367;28;20335;-75
2022/06/30 13:51:08;;;;;;;;;;;32.40;91.70;;;;;;5110229;28;19934;-75
2022/06/30 13:53:35;;;;;;;;;;;32.50;91.90;;;;;;5111525;28;19948;-76
2022/06/30 13:56:03;;;;;;;;;;;32.40;91.80;;;;;;5093314;28;20537;-75
2022/06/30 13:58:30;;;;;;;;;;;32.40;91.80;;;;;;5109704;28;19958;-75
2022/06/30 14:00:58;;;;;;;;;;;32.40;91.70;;;;;;5110136;28;19928;-76
2022/06/30 14:03:25;;;;;;;;;;;32.40;91.40;;;;;;5109781;28;20014;-76
2022/06/30 14:05:53;;;;;;;;;;;32.50;91.80;;;;;;5110110;28;19920;-76
2022/06/30 14:08:21;;;;;;;;;;;32.60;91.70;;;;;;5110145;28;19930;-76
2022/06/30 14:10:48;;;;;;;;;;;32.50;91.60;;;;;;5110174;28;20663;-76
2022/06/30 14:13:16;;;;;;;;;;;32.50;91.40;;;;;;5107052;28;19923;-75
2022/06/30 14:15:49;;;;;;;;;;;32.60;91.50;;;;;;5109283;28;19931;-75
2022/06/30 14:18:20;;;;;;;;;;;32.30;91.60;;;;;;5109450;28;19945;-76
2022/06/30 14:20:48;;;;;;;;;;;32.30;91.40;;;;;;5109799;28;20042;-75
2022/06/30 14:23:16;;;;;;;;;;;32.40;91.50;;;;;;5109560;28;19927;-75
2022/06/30 14:25:45;;;;;;;;;;;32.50;91.30;;;;;;5109730;28;19926;-76
2022/06/30 14:28:15;;;;;;;;;;;32.30;91.20;;;;;;5093018;28;19920;-75
2022/06/30 14:30:44;;;;;;;;;;;32.50;91.20;;;;;;5092770;28;19924;-75
2022/06/30 14:33:11;;;;;;;;;;;32.60;91.00;;;;;;5110489;28;19974;-76
2022/06/30 14:35:39;;;;;;;;;;;32.60;90.80;;;;;;5109054;28;19927;-76
2022/06/30 14:38:06;;;;;;;;;;;32.80;90.70;;;;;;5109209;28;20327;-76
2022/06/30 14:40:34;;;;;;;;;;;32.90;90.60;;;;;;5092235;28;20361;-76